Time;durP1;ratioP1;P1;durP2;ratioP2;P2;SDS_P1;SDS_P2;PMS_P1;PMS_P2;Temp;Humidity;BMP_temperature;BMP_pressure;BME280_temperature;BME280_humidity;BME280_pressure;Samples;Min_cycle;Max_cycle;Signal;HPM_P1;HPM_P2
2022/03/24 00:02:06;;;;;;;;;;;;;;;;;;5074387;28;19908;-89
2022/03/24 00:04:31;;;;;;;;;;;;;;;;;;5093185;28;19915;-89
2022/03/24 00:06:56;;;;;;;;;;;;;;;;;;5075163;28;19908;-89
2022/03/24 00:09:21;;;;;;;;;;;;;;;;;;5074732;28;19930;-89
2022/03/24 00:11:47;;;;;;;;;;;;;;;;;;5074605;28;19908;-89
2022/03/24 00:14:12;;;;;;;;;;;;;;;;;;5092306;28;19916;-89
2022/03/24 00:16:38;;;;;;;;;;;;;;;;;;5075016;28;19916;-89
2022/03/24 00:19:03;;;;;;;;;;;;;;;;;;5092597;28;20303;-89
2022/03/24 00:21:28;;;;;;;;;;;;;;;;;;5074803;28;19908;-89
2022/03/24 00:23:53;;;;;;;;;;;;;;;;;;5074693;28;19908;-89
2022/03/24 00:26:18;;;;;;;;;;;;;;;;;;5092389;28;19912;-89
2022/03/24 00:28:43;;;;;;;;;;;;;;;;;;5074814;28;19931;-89
2022/03/24 00:31:09;;;;;;;;;;;;;;;;;;5074621;28;19954;-89
2022/03/24 00:33:36;;;;;;;;;;;;;;;;;;5092283;28;20013;-89
2022/03/24 00:36:02;;;;;;;;;;;;;;;;;;5074558;28;20011;-89
2022/03/24 00:38:27;;;;;;;;;;;;;;;;;;5092427;28;20002;-89
2022/03/24 00:40:52;;;;;;;;;;;;;;;;;;5092281;28;19911;-89
2022/03/24 00:43:17;;;;;;;;;;;;;;;;;;5073889;28;19919;-90
2022/03/24 00:45:42;;;;;;;;;;;;;;;;;;5073981;28;20367;-89
2022/03/24 00:48:07;;;;;;;;;;;;;;;;;;5092435;28;19908;-89
2022/03/24 00:50:32;;;;;;;;;;;;;;;;;;5091869;28;19947;-89
2022/03/24 00:52:58;;;;;;;;;;;;;;;;;;5095696;28;20009;-89
2022/03/24 00:55:23;;;;;;;;;;;;;;;;;;5078646;28;19931;-89
2022/03/24 00:57:52;;;;;;;;;;;;;;;;;;5078339;28;19995;-89
2022/03/24 01:00:20;;;;;;;;;;;;;;;;;;5078028;28;19916;-89
2022/03/24 01:02:45;;;;;;;;;;;;;;;;;;5095615;28;20345;-88
2022/03/24 01:05:10;;;;;;;;;;;;;;;;;;5096355;28;19912;-89
2022/03/24 01:07:35;;;;;;;;;;;;;;;;;;5078226;28;19990;-89
2022/03/24 01:10:01;;;;;;;;;;;;;;;;;;5078071;28;20007;-89
2022/03/24 01:12:26;;;;;;;;;;;;;;;;;;5095670;28;19938;-89
2022/03/24 01:14:51;;;;;;;;;;;;;;;;;;5078041;28;19912;-89
2022/03/24 01:17:17;;;;;;;;;;;;;;;;;;5078170;28;19908;-89
2022/03/24 01:19:42;;;;;;;;;;;;;;;;;;5078141;28;19912;-89
2022/03/24 01:22:07;;;;;;;;;;;;;;;;;;5077481;28;19912;-89
2022/03/24 01:24:32;;;;;;;;;;;;;;;;;;5095828;28;19908;-89
2022/03/24 01:26:59;;;;;;;;;;;;;;;;;;5077417;28;19905;-89
2022/03/24 01:29:24;;;;;;;;;;;;;;;;;;5077975;28;19916;-89
2022/03/24 01:31:49;;;;;;;;;;;;;;;;;;5077652;28;19908;-89
2022/03/24 01:34:16;;;;;;;;;;;;;;;;;;5077425;28;20286;-89
2022/03/24 01:36:42;;;;;;;;;;;;;;;;;;5095786;28;19908;-89
2022/03/24 01:39:08;;;;;;;;;;;;;;;;;;5077345;28;20279;-89
2022/03/24 01:41:33;;;;;;;;;;;;;;;;;;5095306;28;20011;-89
2022/03/24 01:43:59;;;;;;;;;;;;;;;;;;5077070;28;19956;-89
2022/03/24 01:46:24;;;;;;;;;;;;;;;;;;5095361;28;20010;-89
2022/03/24 01:48:49;;;;;;;;;;;;;;;;;;5095647;28;19908;-89
2022/03/24 01:51:14;;;;;;;;;;;;;;;;;;5095325;28;20334;-89
2022/03/24 01:53:39;;;;;;;;;;;;;;;;;;5076698;28;19908;-89
2022/03/24 01:56:04;;;;;;;;;;;;;;;;;;5077274;28;19908;-89
2022/03/24 01:58:29;;;;;;;;;;;;;;;;;;5077224;28;19912;-89
2022/03/24 02:00:55;;;;;;;;;;;;;;;;;;5076982;28;20044;-89
2022/03/24 02:03:20;;;;;;;;;;;;;;;;;;5093339;28;20034;-89
2022/03/24 02:05:46;;;;;;;;;;;;;;;;;;5076888;28;20014;-89
2022/03/24 02:08:11;;;;;;;;;;;;;;;;;;5095034;28;20407;-89
2022/03/24 02:10:36;;;;;;;;;;;;;;;;;;5077037;28;20011;-89
2022/03/24 02:13:01;;;;;;;;;;;;;;;;;;5076637;28;20009;-89
2022/03/24 02:15:26;;;;;;;;;;;;;;;;;;5077012;28;19998;-88
2022/03/24 02:17:52;;;;;;;;;;;;;;;;;;5076984;28;19905;-89
2022/03/24 02:20:18;;;;;;;;;;;;;;;;;;5076976;28;19920;-90
2022/03/24 02:22:44;;;;;;;;;;;;;;;;;;5076399;28;20314;-89
2022/03/24 02:25:10;;;;;;;;;;;;;;;;;;5076806;28;20109;-89
2022/03/24 02:27:35;;;;;;;;;;;;;;;;;;5076954;28;19915;-89
2022/03/24 02:30:00;;;;;;;;;;;;;;;;;;5076424;28;19908;-88
2022/03/24 02:32:25;;;;;;;;;;;;;;;;;;5093690;28;19912;-89
2022/03/24 02:34:52;;;;;;;;;;;;;;;;;;5076871;28;19953;-89
2022/03/24 02:37:18;;;;;;;;;;;;;;;;;;5076584;28;19915;-89
2022/03/24 02:39:44;;;;;;;;;;;;;;;;;;5094474;28;19955;-89
2022/03/24 02:42:09;;;;;;;;;;;;;;;;;;5075882;28;19962;-89
2022/03/24 02:44:34;;;;;;;;;;;;;;;;;;5076096;28;19908;-89
2022/03/24 02:47:00;;;;;;;;;;;;;;;;;;5075655;28;19920;-89
2022/03/24 02:49:25;;;;;;;;;;;;;;;;;;5075719;28;20311;-89
2022/03/24 02:51:50;;;;;;;;;;;;;;;;;;5075565;28;20045;-89
2022/03/24 02:54:15;;;;;;;;;;;;;;;;;;5075972;28;20245;-89
2022/03/24 02:56:42;;;;;;;;;;;;;;;;;;5075618;28;19912;-89
2022/03/24 02:59:07;;;;;;;;;;;;;;;;;;5075822;28;20015;-89
2022/03/24 03:01:33;;;;;;;;;;;;;;;;;;5075700;28;19963;-89
2022/03/24 03:03:58;;;;;;;;;;;;;;;;;;5075212;28;20355;-89
2022/03/24 03:06:23;;;;;;;;;;;;;;;;;;5094153;28;19915;-89
2022/03/24 03:08:51;;;;;;;;;;;;;;;;;;5076027;28;19908;-89
2022/03/24 03:11:17;;;;;;;;;;;;;;;;;;5093707;28;19908;-90
2022/03/24 03:13:42;;;;;;;;;;;;;;;;;;5074828;28;19915;-89
2022/03/24 03:16:07;;;;;;;;;;;;;;;;;;5093762;28;20268;-89
2022/03/24 03:18:32;;;;;;;;;;;;;;;;;;5093887;28;19912;-89
2022/03/24 03:20:57;;;;;;;;;;;;;;;;;;5075604;28;19908;-89
2022/03/24 03:23:22;;;;;;;;;;;;;;;;;;5075272;28;20355;-89
2022/03/24 03:25:47;;;;;;;;;;;;;;;;;;5075155;28;19912;-89
2022/03/24 03:28:13;;;;;;;;;;;;;;;;;;5093273;28;19916;-89
2022/03/24 03:30:39;;;;;;;;;;;;;;;;;;5067941;28;20014;-89
2022/03/24 03:33:05;;;;;;;;;;;;;;;;;;5072870;28;20053;-89
2022/03/24 03:35:30;;;;;;;;;;;;;;;;;;5055450;28;20006;-89
2022/03/24 03:37:55;;;;;;;;;;;;;;;;;;5072963;28;19963;-89
2022/03/24 03:40:20;;;;;;;;;;;;;;;;;;5073285;28;20011;-89
2022/03/24 03:42:49;;;;;;;;;;;;;;;;;;5054822;28;19909;-89
2022/03/24 03:45:16;;;;;;;;;;;;;;;;;;5073328;28;19919;-89
2022/03/24 03:47:41;;;;;;;;;;;;;;;;;;5072897;28;20287;-89
2022/03/24 03:50:06;;;;;;;;;;;;;;;;;;5073037;28;20441;-89
2022/03/24 03:52:32;;;;;;;;;;;;;;;;;;5054796;28;20390;-89
2022/03/24 03:54:57;;;;;;;;;;;;;;;;;;5054955;28;20412;-89
2022/03/24 03:57:22;;;;;;;;;;;;;;;;;;5072523;28;20003;-89
2022/03/24 03:59:47;;;;;;;;;;;;;;;;;;5054685;28;19912;-89
2022/03/24 04:02:12;;;;;;;;;;;;;;;;;;5054395;28;20196;-89
2022/03/24 04:04:37;;;;;;;;;;;;;;;;;;5072587;28;19980;-89
2022/03/24 04:07:03;;;;;;;;;;;;;;;;;;5072627;28;19954;-89
2022/03/24 04:09:28;;;;;;;;;;;;;;;;;;5072728;28;19978;-89
2022/03/24 04:11:54;;;;;;;;;;;;;;;;;;5054227;28;19909;-89
2022/03/24 04:14:19;;;;;;;;;;;;;;;;;;5072521;28;19908;-89
2022/03/24 04:16:44;;;;;;;;;;;;;;;;;;5054872;28;19912;-89
2022/03/24 04:19:09;;;;;;;;;;;;;;;;;;5054566;28;19923;-89
2022/03/24 04:21:35;;;;;;;;;;;;;;;;;;5072739;28;19936;-89
2022/03/24 04:24:00;;;;;;;;;;;;;;;;;;5072353;28;19931;-89
2022/03/24 04:26:25;;;;;;;;;;;;;;;;;;5053795;28;19908;-89
2022/03/24 04:28:51;;;;;;;;;;;;;;;;;;5072505;28;19953;-88
2022/03/24 04:31:16;;;;;;;;;;;;;;;;;;5054478;28;20401;-89
2022/03/24 04:33:41;;;;;;;;;;;;;;;;;;5072124;28;19915;-89
2022/03/24 04:36:08;;;;;;;;;;;;;;;;;;5072427;28;19908;-89
2022/03/24 04:38:33;;;;;;;;;;;;;;;;;;5054717;28;19951;-89
2022/03/24 04:40:58;;;;;;;;;;;;;;;;;;5054731;28;19962;-89
2022/03/24 04:43:24;;;;;;;;;;;;;;;;;;5072211;28;20368;-89
2022/03/24 04:45:49;;;;;;;;;;;;;;;;;;5054118;28;19913;-89
2022/03/24 04:48:14;;;;;;;;;;;;;;;;;;5072108;28;19938;-89
2022/03/24 04:50:39;;;;;;;;;;;;;;;;;;5054674;28;19958;-89
2022/03/24 04:53:04;;;;;;;;;;;;;;;;;;5054269;28;19915;-89
2022/03/24 04:55:29;;;;;;;;;;;;;;;;;;5072373;28;19962;-89
2022/03/24 04:57:54;;;;;;;;;;;;;;;;;;5072381;28;19913;-89
2022/03/24 05:00:20;;;;;;;;;;;;;;;;;;5072394;28;20521;-89
2022/03/24 05:02:45;;;;;;;;;;;;;;;;;;5054156;28;19909;-89
2022/03/24 05:05:10;;;;;;;;;;;;;;;;;;5054289;28;20363;-89
2022/03/24 05:07:36;;;;;;;;;;;;;;;;;;5072217;28;19908;-89
2022/03/24 05:10:01;;;;;;;;;;;;;;;;;;5054319;28;20265;-89
2022/03/24 05:12:26;;;;;;;;;;;;;;;;;;5053891;28;20375;-89
2022/03/24 05:14:51;;;;;;;;;;;;;;;;;;5054473;28;20544;-89
2022/03/24 05:17:17;;;;;;;;;;;;;;;;;;5071989;28;20249;-89
2022/03/24 05:19:44;;;;;;;;;;;;;;;;;;5053787;28;20022;-89
2022/03/24 05:22:09;;;;;;;;;;;;;;;;;;5053593;28;19995;-89
2022/03/24 05:24:34;;;;;;;;;;;;;;;;;;5071563;28;19995;-89
2022/03/24 05:27:00;;;;;;;;;;;;;;;;;;5071615;28;19909;-89
2022/03/24 05:29:25;;;;;;;;;;;;;;;;;;5053928;28;19909;-89
2022/03/24 05:31:50;;;;;;;;;;;;;;;;;;5053729;28;19908;-89
2022/03/24 05:34:15;;;;;;;;;;;;;;;;;;5053862;28;19912;-88
2022/03/24 05:36:40;;;;;;;;;;;;;;;;;;5054029;28;19909;-89
2022/03/24 05:39:05;;;;;;;;;;;;;;;;;;5057151;28;19948;-89
2022/03/24 05:41:30;;;;;;;;;;;;;;;;;;5057647;28;19956;-89
2022/03/24 05:44:05;;;;;;;;;;;;;;;;;;5057179;28;20427;-89
2022/03/24 05:46:31;;;;;;;;;;;;;;;;;;5075239;28;19944;-89
2022/03/24 05:48:56;;;;;;;;;;;;;;;;;;5057410;28;19948;-89
2022/03/24 05:51:21;;;;;;;;;;;;;;;;;;5074926;28;19909;-89
2022/03/24 05:53:46;;;;;;;;;;;;;;;;;;5074447;28;19909;-89
2022/03/24 05:56:11;;;;;;;;;;;;;;;;;;5075227;28;19909;-89
2022/03/24 05:58:36;;;;;;;;;;;;;;;;;;5057056;28;20273;-89
2022/03/24 06:01:01;;;;;;;;;;;;;;;;;;5056864;28;19910;-88
2022/03/24 06:03:27;;;;;;;;;;;;;;;;;;5074092;28;19908;-89
2022/03/24 06:05:53;;;;;;;;;;;;;;;;;;5075140;28;19909;-89
2022/03/24 06:08:19;;;;;;;;;;;;;;;;;;5075085;28;19908;-89
2022/03/24 06:10:46;;;;;;;;;;;;;;;;;;5056464;28;19917;-89
2022/03/24 06:13:11;;;;;;;;;;;;;;;;;;5056088;28;19916;-89
2022/03/24 06:15:36;;;;;;;;;;;;;;;;;;5074565;28;19909;-89
2022/03/24 06:18:01;;;;;;;;;;;;;;;;;;5074459;28;19912;-89
2022/03/24 06:20:26;;;;;;;;;;;;;;;;;;5056330;28;19909;-89
2022/03/24 06:22:51;;;;;;;;;;;;;;;;;;5056067;28;19969;-88
2022/03/24 06:25:17;;;;;;;;;;;;;;;;;;5056663;28;19909;-89
2022/03/24 06:27:42;;;;;;;;;;;;;;;;;;5056470;28;19957;-89
2022/03/24 06:30:07;;;;;;;;;;;;;;;;;;5056419;28;19961;-89
2022/03/24 06:32:32;;;;;;;;;;;;;;;;;;5056011;28;19909;-89
2022/03/24 06:34:57;;;;;;;;;;;;;;;;;;5074586;28;19908;-89
2022/03/24 06:37:22;;;;;;;;;;;;;;;;;;5074458;28;19995;-89
2022/03/24 06:39:47;;;;;;;;;;;;;;;;;;5056351;28;20073;-89
2022/03/24 06:42:13;;;;;;;;;;;;;;;;;;5055762;28;20063;-89
2022/03/24 06:44:38;;;;;;;;;;;;;;;;;;5056561;28;19915;-89
2022/03/24 06:47:03;;;;;;;;;;;;;;;;;;5069733;28;19951;-89
2022/03/24 06:49:28;;;;;;;;;;;;;;;;;;5086035;28;20011;-88
2022/03/24 06:51:54;;;;;;;;;;;;;;;;;;5087052;28;19912;-89
2022/03/24 06:54:19;;;;;;;;;;;;;;;;;;5060933;28;20436;-88
2022/03/24 06:56:44;;;;;;;;;;;;;;;;;;5079939;28;19962;-89
2022/03/24 06:59:10;;;;;;;;;;;;;;;;;;5080755;28;19965;-89
2022/03/24 07:01:36;;;;;;;;;;;;;;;;;;5083502;28;20370;-87
2022/03/24 07:04:01;;;;;;;;;;;;;;;;;;5077099;28;20386;-89
2022/03/24 07:06:26;;;;;;;;;;;;;;;;;;5077104;28;19955;-88
2022/03/24 07:08:51;;;;;;;;;;;;;;;;;;5097146;28;19909;-89
2022/03/24 07:11:16;;;;;;;;;;;;;;;;;;5110380;28;20364;-89
2022/03/24 07:13:41;;;;;;;;;;;;;;;;;;5069809;28;19913;-88
2022/03/24 07:16:06;;;;;;;;;;;;;;;;;;5056388;28;19913;-88
2022/03/24 07:18:31;;;;;;;;;;;;;;;;;;5056478;28;19962;-89
2022/03/24 07:20:57;;;;;;;;;;;;;;;;;;5082516;28;19973;-89
2022/03/24 07:23:22;;;;;;;;;;;;;;;;;;5082794;28;19993;-88
2022/03/24 07:25:48;;;;;;;;;;;;;;;;;;5105810;28;19912;-88
2022/03/24 07:28:14;;;;;;;;;;;;;;;;;;5076816;28;19912;-89
2022/03/24 07:30:39;;;;;;;;;;;;;;;;;;5089373;28;19923;-88
2022/03/24 07:33:04;;;;;;;;;;;;;;;;;;5063902;28;19908;-88
2022/03/24 07:35:29;;;;;;;;;;;;;;;;;;5093785;28;20046;-89
2022/03/24 07:37:54;;;;;;;;;;;;;;;;;;5074229;28;19920;-89
2022/03/24 07:40:21;;;;;;;;;;;;;;;;;;5074503;28;20375;-90
2022/03/24 07:42:46;;;;;;;;;;;;;;;;;;5089168;28;19923;-89
2022/03/24 07:45:12;;;;;;;;;;;;;;;;;;5089122;28;19908;-90
2022/03/24 07:47:37;;;;;;;;;;;;;;;;;;5075119;28;19916;-89
2022/03/24 07:50:03;;;;;;;;;;;;;;;;;;5075070;28;19934;-90
2022/03/24 07:52:28;;;;;;;;;;;;;;;;;;5075319;28;19915;-91
2022/03/24 07:54:55;;;;;;;;;;;;;;;;;;5080165;28;19961;-90
2022/03/24 07:57:20;;;;;;;;;;;;;;;;;;5091951;28;19947;-89
2022/03/24 07:59:45;;;;;;;;;;;;;;;;;;5074836;28;19962;-90
2022/03/24 08:02:11;;;;;;;;;;;;;;;;;;5074934;28;20004;-90
2022/03/24 08:04:36;;;;;;;;;;;;;;;;;;5090589;28;20018;-90
2022/03/24 08:07:01;;;;;;;;;;;;;;;;;;5114319;28;19908;-91
2022/03/24 08:09:27;;;;;;;;;;;;;;;;;;5085237;28;19926;-90
2022/03/24 08:11:52;;;;;;;;;;;;;;;;;;5107731;28;19912;-90
2022/03/24 08:14:17;;;;;;;;;;;;;;;;;;5108749;28;19912;-89
2022/03/24 08:16:45;;;;;;;;;;;;;;;;;;5080806;28;19916;-90
2022/03/24 08:19:11;;;;;;;;;;;;;;;;;;5076078;28;19912;-90
2022/03/24 08:21:37;;;;;;;;;;;;;;;;;;5093689;28;20009;-90
2022/03/24 08:24:02;;;;;;;;;;;;;;;;;;5076373;28;19916;-90
2022/03/24 08:26:27;;;;;;;;;;;;;;;;;;5093985;28;20011;-89
2022/03/24 08:28:55;;;;;;;;;;;;;;;;;;5091091;28;19911;-90
2022/03/24 08:31:20;;;;;;;;;;;;;;;;;;5103779;28;19915;-90
2022/03/24 08:33:45;;;;;;;;;;;;;;;;;;5068473;28;19912;-90
2022/03/24 08:36:10;;;;;;;;;;;;;;;;;;5093399;28;19959;-90
2022/03/24 08:38:36;;;;;;;;;;;;;;;;;;5093814;28;20371;-90
2022/03/24 08:41:01;;;;;;;;;;;;;;;;;;5075553;28;20365;-90
2022/03/24 08:43:26;;;;;;;;;;;;;;;;;;5074365;28;19909;-90
2022/03/24 08:45:51;;;;;;;;;;;;;;;;;;5091990;28;19916;-90
2022/03/24 08:48:16;;;;;;;;;;;;;;;;;;5074366;28;20275;-89
2022/03/24 08:50:41;;;;;;;;;;;;;;;;;;5074030;28;20327;-90
2022/03/24 08:53:06;;;;;;;;;;;;;;;;;;5074645;28;19999;-90
2022/03/24 08:55:31;;;;;;;;;;;;;;;;;;5092029;28;20011;-90
2022/03/24 08:57:56;;;;;;;;;;;;;;;;;;5074113;28;19935;-90
2022/03/24 09:00:23;;;;;;;;;;;;;;;;;;5074121;28;19943;-90
2022/03/24 09:02:48;;;;;;;;;;;;;;;;;;5092145;28;19982;-90
2022/03/24 09:05:13;;;;;;;;;;;;;;;;;;5074064;28;20438;-90
2022/03/24 09:07:39;;;;;;;;;;;;;;;;;;5092425;28;19915;-90
2022/03/24 09:10:05;;;;;;;;;;;;;;;;;;5092370;28;19908;-89
2022/03/24 09:12:30;;;;;;;;;;;;;;;;;;5075443;28;19953;-90
2022/03/24 09:14:55;;;;;;;;;;;;;;;;;;5095710;28;19912;-90
2022/03/24 09:17:20;;;;;;;;;;;;;;;;;;5077735;28;19915;-90
2022/03/24 09:19:45;;;;;;;;;;;;;;;;;;5077634;28;19923;-91
2022/03/24 09:22:11;;;;;;;;;;;;;;;;;;5091723;28;20406;-91
2022/03/24 09:24:36;;;;;;;;;;;;;;;;;;5067231;28;19919;-92
2022/03/24 09:27:02;;;;;;;;;;;;;;;;;;5067046;28;19919;-92
2022/03/24 09:29:28;;;;;;;;;;;;;;;;;;5092689;28;20364;-93
2022/03/24 09:31:53;;;;;;;;;;;;;;;;;;5092869;28;20375;-92
2022/03/24 09:34:18;;;;;;;;;;;;;;;;;;5076448;28;19913;-82
2022/03/24 09:36:43;;;;;;;;;;;;;;;;;;5092257;28;19909;-85
2022/03/24 09:39:08;;;;;;;;;;;;;;;;;;5089283;28;20434;-79
2022/03/24 09:41:33;;;;;;;;;;;;;;;;;;5077030;28;19908;-83
2022/03/24 09:43:58;;;;;;;;;;;;;;;;;;5095769;28;20287;-83
2022/03/24 09:46:24;;;;;;;;;;;;;;;;;;5076937;28;19970;-82
2022/03/24 09:48:49;;;;;;;;;;;;;;;;;;5088648;28;19917;-82
2022/03/24 09:51:14;;;;;;;;;;;;;;;;;;5069459;28;19916;-82
2022/03/24 09:53:40;;;;;;;;;;;;;;;;;;5095124;28;19915;-89
2022/03/24 09:56:06;;;;;;;;;;;;;;;;;;5094897;28;20006;-87
2022/03/24 09:58:31;;;;;;;;;;;;;;;;;;5077595;28;20006;-87
2022/03/24 10:00:56;;;;;;;;;;;;;;;;;;5076928;28;19916;-87
2022/03/24 10:03:22;;;;;;;;;;;;;;;;;;5094935;28;19908;-88
2022/03/24 10:05:47;;;;;;;;;;;;;;;;;;5076764;28;19908;-88
2022/03/24 10:08:12;;;;;;;;;;;;;;;;;;5076853;28;19954;-88
2022/03/24 10:10:38;;;;;;;;;;;;;;;;;;5065203;28;19962;-88
2022/03/24 10:13:04;;;;;;;;;;;;;;;;;;5074803;28;19962;-88
2022/03/24 10:15:29;;;;;;;;;;;;;;;;;;5069290;28;20022;-87
2022/03/24 10:17:55;;;;;;;;;;;;;;;;;;5098168;28;20290;-87
2022/03/24 10:20:20;;;;;;;;;;;;;;;;;;5090492;28;19924;-85
2022/03/24 10:22:45;;;;;;;;;;;;;;;;;;5069315;28;19912;-85
2022/03/24 10:25:10;;;;;;;;;;;;;;;;;;5076179;28;19908;-83
2022/03/24 10:27:35;;;;;;;;;;;;;;;;;;5078088;28;19908;-91
2022/03/24 10:30:00;;;;;;;;;;;;;;;;;;5075269;28;19913;-90
2022/03/24 10:32:25;;;;;;;;;;;;;;;;;;5075941;28;19909;-91
2022/03/24 10:34:51;;;;;;;;;;;;;;;;;;5076182;28;19912;-91
2022/03/24 10:37:19;;;;;;;;;;;;;;;;;;5075950;28;19915;-91
2022/03/24 10:39:44;;;;;;;;;;;;;;;;;;5075786;28;19917;-89
2022/03/24 10:42:10;;;;;;;;;;;;;;;;;;5058807;28;19917;-90
2022/03/24 10:44:35;;;;;;;;;;;;;;;;;;5074496;28;19999;-90
2022/03/24 10:47:01;;;;;;;;;;;;;;;;;;5074233;28;19959;-90
2022/03/24 10:49:27;;;;;;;;;;;;;;;;;;5074529;28;20015;-90
2022/03/24 10:51:52;;;;;;;;;;;;;;;;;;5077240;28;19913;-90
2022/03/24 10:54:17;;;;;;;;;;;;;;;;;;5075345;28;19913;-91
2022/03/24 10:56:43;;;;;;;;;;;;;;;;;;5057309;28;19916;-90
2022/03/24 10:59:08;;;;;;;;;;;;;;;;;;5060169;28;19924;-90
2022/03/24 11:01:34;;;;;;;;;;;;;;;;;;5083636;28;19920;-90
2022/03/24 11:03:59;;;;;;;;;;;;;;;;;;5075279;28;19916;-90
2022/03/24 11:06:24;;;;;;;;;;;;;;;;;;5068434;28;19912;-90
2022/03/24 11:08:49;;;;;;;;;;;;;;;;;;5094726;28;19912;-90
2022/03/24 11:11:15;;;;;;;;;;;;;;;;;;5076258;28;19916;-90
2022/03/24 11:13:40;;;;;;;;;;;;;;;;;;5075950;28;19916;-90
2022/03/24 11:16:05;;;;;;;;;;;;;;;;;;5095054;28;19908;-90
2022/03/24 11:18:30;;;;;;;;;;;;;;;;;;5114375;28;20022;-91
2022/03/24 11:20:55;;;;;;;;;;;;;;;;;;5096429;28;19911;-91
2022/03/24 11:23:20;;;;;;;;;;;;;;;;;;5114621;28;19908;-90
2022/03/24 11:25:45;;;;;;;;;;;;;;;;;;5096086;28;20335;-89
2022/03/24 11:28:14;;;;;;;;;;;;;;;;;;5097027;28;19909;-90
2022/03/24 11:30:39;;;;;;;;;;;;;;;;;;5093960;28;19964;-90
2022/03/24 11:33:04;;;;;;;;;;;;;;;;;;5094083;28;20012;-91
2022/03/24 11:35:29;;;;;;;;;;;;;;;;;;5093266;28;20323;-91
2022/03/24 11:37:55;;;;;;;;;;;;;;;;;;5081541;28;19951;-91
2022/03/24 11:40:20;;;;;;;;;;;;;;;;;;5095355;28;20026;-90
2022/03/24 11:42:45;;;;;;;;;;;;;;;;;;5113451;28;19934;-90
2022/03/24 11:45:10;;;;;;;;;;;;;;;;;;5090965;28;19911;-90
2022/03/24 11:47:35;;;;;;;;;;;;;;;;;;5093390;28;19916;-90
2022/03/24 11:50:00;;;;;;;;;;;;;;;;;;5076040;28;19912;-90
2022/03/24 11:52:26;;;;;;;;;;;;;;;;;;5094324;28;19908;-90
2022/03/24 11:54:52;;;;;;;;;;;;;;;;;;5095280;28;19912;-90
2022/03/24 11:57:17;;;;;;;;;;;;;;;;;;5076525;28;19908;-90
2022/03/24 11:59:42;;;;;;;;;;;;;;;;;;5072080;28;19916;-90
2022/03/24 12:02:08;;;;;;;;;;;;;;;;;;5056290;28;20410;-90
2022/03/24 12:04:33;;;;;;;;;;;;;;;;;;5072437;28;19908;-90
2022/03/24 12:06:58;;;;;;;;;;;;;;;;;;5114645;28;19916;-90
2022/03/24 12:09:23;;;;;;;;;;;;;;;;;;5092685;28;19953;-90
2022/03/24 12:11:50;;;;;;;;;;;;;;;;;;5094977;28;20006;-89
2022/03/24 12:14:16;;;;;;;;;;;;;;;;;;5106225;28;19908;-90
2022/03/24 12:16:41;;;;;;;;;;;;;;;;;;5075797;28;19919;-90
2022/03/24 12:19:08;;;;;;;;;;;;;;;;;;5072419;28;20011;-90
2022/03/24 12:21:33;;;;;;;;;;;;;;;;;;5094166;28;19912;-90
2022/03/24 12:23:58;;;;;;;;;;;;;;;;;;5097919;28;19912;-90
2022/03/24 12:26:24;;;;;;;;;;;;;;;;;;5105309;28;20379;-90
2022/03/24 12:28:49;;;;;;;;;;;;;;;;;;5094647;28;20014;-90
2022/03/24 12:31:15;;;;;;;;;;;;;;;;;;5094170;28;19994;-90
2022/03/24 12:33:40;;;;;;;;;;;;;;;;;;5088074;28;19912;-90
2022/03/24 12:36:06;;;;;;;;;;;;;;;;;;5088467;28;19919;-90
2022/03/24 12:38:31;;;;;;;;;;;;;;;;;;5109902;28;20395;-90
2022/03/24 12:40:56;;;;;;;;;;;;;;;;;;5083356;28;19912;-90
2022/03/24 12:43:21;;;;;;;;;;;;;;;;;;5077260;28;19934;-90
2022/03/24 12:45:46;;;;;;;;;;;;;;;;;;5092510;28;19999;-90
2022/03/24 12:48:12;;;;;;;;;;;;;;;;;;5089076;28;19919;-89
2022/03/24 12:50:37;;;;;;;;;;;;;;;;;;5079963;28;20383;-90
2022/03/24 12:53:02;;;;;;;;;;;;;;;;;;5079921;28;19908;-90
2022/03/24 12:55:28;;;;;;;;;;;;;;;;;;5098361;28;19934;-92
2022/03/24 12:57:53;;;;;;;;;;;;;;;;;;5064214;28;19970;-92
2022/03/24 13:00:18;;;;;;;;;;;;;;;;;;5076978;28;19912;-92
2022/03/24 13:02:43;;;;;;;;;;;;;;;;;;5077256;28;19909;-92
2022/03/24 13:05:11;;;;;;;;;;;;;;;;;;5077037;28;19958;-92
2022/03/24 13:07:37;;;;;;;;;;;;;;;;;;5078091;28;20298;-92
2022/03/24 13:10:02;;;;;;;;;;;;;;;;;;5078048;28;19915;-92
2022/03/24 13:12:30;;;;;;;;;;;;;;;;;;5077600;28;20407;-92
2022/03/24 13:14:55;;;;;;;;;;;;;;;;;;5076619;28;19928;-92
2022/03/24 13:17:20;;;;;;;;;;;;;;;;;;5078287;28;19919;-92
2022/03/24 13:19:46;;;;;;;;;;;;;;;;;;5076425;28;19942;-92
2022/03/24 13:22:11;;;;;;;;;;;;;;;;;;5076374;28;20003;-92
2022/03/24 13:24:36;;;;;;;;;;;;;;;;;;5076475;28;19908;-92
2022/03/24 13:27:01;;;;;;;;;;;;;;;;;;5076033;28;20433;-92
2022/03/24 13:29:26;;;;;;;;;;;;;;;;;;5059357;28;20323;-92
2022/03/24 13:31:51;;;;;;;;;;;;;;;;;;5059502;28;19963;-92
2022/03/24 13:34:17;;;;;;;;;;;;;;;;;;5077295;28;19915;-92
2022/03/24 13:36:42;;;;;;;;;;;;;;;;;;5075870;28;19912;-92
2022/03/24 13:39:07;;;;;;;;;;;;;;;;;;5082604;28;19924;-92
2022/03/24 13:41:32;;;;;;;;;;;;;;;;;;5076223;28;20356;-92
2022/03/24 13:43:58;;;;;;;;;;;;;;;;;;5076226;28;19908;-92
2022/03/24 13:46:23;;;;;;;;;;;;;;;;;;5076181;28;19917;-92
2022/03/24 13:48:48;;;;;;;;;;;;;;;;;;5080649;28;19923;-93
2022/03/24 13:51:13;;;;;;;;;;;;;;;;;;5079656;28;19916;-92
2022/03/24 13:53:38;;;;;;;;;;;;;;;;;;5097619;28;19908;-92
2022/03/24 13:56:03;;;;;;;;;;;;;;;;;;5097399;28;19966;-92
2022/03/24 13:58:28;;;;;;;;;;;;;;;;;;5097046;28;19979;-93
2022/03/24 14:00:54;;;;;;;;;;;;;;;;;;5079392;28;20435;-92
2022/03/24 14:03:19;;;;;;;;;;;;;;;;;;5079168;28;20011;-92
2022/03/24 14:05:44;;;;;;;;;;;;;;;;;;5079368;28;19908;-92
2022/03/24 14:08:09;;;;;;;;;;;;;;;;;;5091089;28;19908;-92
2022/03/24 14:10:34;;;;;;;;;;;;;;;;;;5116396;28;19912;-92
2022/03/24 14:12:59;;;;;;;;;;;;;;;;;;5099488;28;19931;-92
2022/03/24 14:15:24;;;;;;;;;;;;;;;;;;5099280;28;19915;-92
2022/03/24 14:17:49;;;;;;;;;;;;;;;;;;5087936;28;19977;-92
2022/03/24 14:20:15;;;;;;;;;;;;;;;;;;5096871;28;20371;-92
2022/03/24 14:22:40;;;;;;;;;;;;;;;;;;5078968;28;19908;-92
2022/03/24 14:25:05;;;;;;;;;;;;;;;;;;5078852;28;20050;-92
2022/03/24 14:27:30;;;;;;;;;;;;;;;;;;5070980;28;20439;-92
2022/03/24 14:29:55;;;;;;;;;;;;;;;;;;5075493;28;19995;-92
2022/03/24 14:32:24;;;;;;;;;;;;;;;;;;5075762;28;20272;-92
2022/03/24 14:34:50;;;;;;;;;;;;;;;;;;5075409;28;20368;-92
2022/03/24 14:37:15;;;;;;;;;;;;;;;;;;5076433;28;19919;-92
2022/03/24 14:39:40;;;;;;;;;;;;;;;;;;5058385;28;19912;-92
2022/03/24 14:42:06;;;;;;;;;;;;;;;;;;5076335;28;19909;-92
2022/03/24 14:44:31;;;;;;;;;;;;;;;;;;5076647;28;19919;-92
2022/03/24 14:46:56;;;;;;;;;;;;;;;;;;5059602;28;19921;-92
2022/03/24 14:49:21;;;;;;;;;;;;;;;;;;5075007;28;19966;-92
2022/03/24 14:51:46;;;;;;;;;;;;;;;;;;5074915;28;20378;-92
2022/03/24 14:54:11;;;;;;;;;;;;;;;;;;5076100;28;19999;-92
2022/03/24 14:56:37;;;;;;;;;;;;;;;;;;5102184;28;19958;-92
2022/03/24 14:59:03;;;;;;;;;;;;;;;;;;5097945;28;19911;-92
2022/03/24 15:01:28;;;;;;;;;;;;;;;;;;5059484;28;19916;-92
2022/03/24 15:03:54;;;;;;;;;;;;;;;;;;5074732;28;19932;-92
2022/03/24 15:06:19;;;;;;;;;;;;;;;;;;5097403;28;19911;-92
2022/03/24 15:08:44;;;;;;;;;;;;;;;;;;5116409;28;19908;-92
2022/03/24 15:11:09;;;;;;;;;;;;;;;;;;5115771;28;19908;-92
2022/03/24 15:13:34;;;;;;;;;;;;;;;;;;5116596;28;19918;-92
2022/03/24 15:16:02;;;;;;;;;;;;;;;;;;5096836;28;19926;-92
2022/03/24 15:18:28;;;;;;;;;;;;;;;;;;5116500;28;19908;-92
2022/03/24 15:20:53;;;;;;;;;;;;;;;;;;5116177;28;20320;-92
2022/03/24 15:23:18;;;;;;;;;;;;;;;;;;5116150;28;19912;-92
2022/03/24 15:25:43;;;;;;;;;;;;;;;;;;5114915;28;19911;-92
2022/03/24 15:28:08;;;;;;;;;;;;;;;;;;5116176;28;19912;-92
2022/03/24 15:30:33;;;;;;;;;;;;;;;;;;5116367;28;19908;-92
2022/03/24 15:32:58;;;;;;;;;;;;;;;;;;5115931;28;19998;-92
2022/03/24 15:35:23;;;;;;;;;;;;;;;;;;5108411;28;19912;-92
2022/03/24 15:37:49;;;;;;;;;;;;;;;;;;5082320;28;19916;-92
2022/03/24 15:40:14;;;;;;;;;;;;;;;;;;5075477;28;19952;-92
2022/03/24 15:42:42;;;;;;;;;;;;;;;;;;5075155;28;19959;-92
2022/03/24 15:45:07;;;;;;;;;;;;;;;;;;5085803;28;19944;-93
2022/03/24 15:47:32;;;;;;;;;;;;;;;;;;5090629;28;19923;-92
2022/03/24 15:49:57;;;;;;;;;;;;;;;;;;5074899;28;20249;-92
2022/03/24 15:52:25;;;;;;;;;;;;;;;;;;5090725;28;19916;-92
2022/03/24 15:54:50;;;;;;;;;;;;;;;;;;5094866;28;19912;-92
2022/03/24 15:57:17;;;;;;;;;;;;;;;;;;5090112;28;20051;-92
2022/03/24 15:59:42;;;;;;;;;;;;;;;;;;5094145;28;19916;-92
2022/03/24 16:02:07;;;;;;;;;;;;;;;;;;5097001;28;19908;-92
2022/03/24 16:04:32;;;;;;;;;;;;;;;;;;5096886;28;19915;-92
2022/03/24 16:06:57;;;;;;;;;;;;;;;;;;5096854;28;19915;-93
2022/03/24 16:09:22;;;;;;;;;;;;;;;;;;5111620;28;20363;-92
2022/03/24 16:11:48;;;;;;;;;;;;;;;;;;5076492;28;19915;-92
2022/03/24 16:14:13;;;;;;;;;;;;;;;;;;5094329;28;19915;-92
2022/03/24 16:16:38;;;;;;;;;;;;;;;;;;5076475;28;19915;-92
2022/03/24 16:19:04;;;;;;;;;;;;;;;;;;5094356;28;19927;-92
2022/03/24 16:21:30;;;;;;;;;;;;;;;;;;5090070;28;19911;-92
2022/03/24 16:23:55;;;;;;;;;;;;;;;;;;5096478;28;19914;-91
2022/03/24 16:26:20;;;;;;;;;;;;;;;;;;5096611;28;19914;-92
2022/03/24 16:28:45;;;;;;;;;;;;;;;;;;5114305;28;20272;-92
2022/03/24 16:31:11;;;;;;;;;;;;;;;;;;5088152;28;19913;-91
2022/03/24 16:33:36;;;;;;;;;;;;;;;;;;5075903;28;19912;-92